createdAt,value
2019-03-20T00:02:26.109Z,0.28
2019-03-20T00:04:56.669Z,0.28
2019-03-20T00:07:27.150Z,0.27
2019-03-20T00:09:57.644Z,0.27
2019-03-20T00:12:28.228Z,0.20
2019-03-20T00:14:58.738Z,0.18
2019-03-20T00:17:29.395Z,0.15
2019-03-20T00:19:59.942Z,0.18
2019-03-20T00:22:30.465Z,0.13
2019-03-20T00:25:00.921Z,0.04
2019-03-20T00:27:31.493Z,0.01
2019-03-20T00:30:01.984Z,0.05
2019-03-20T00:32:32.477Z,0.23
2019-03-20T00:35:02.996Z,0.38
2019-03-20T00:37:33.486Z,0.41
2019-03-20T00:40:04.406Z,0.38
2019-03-20T00:42:35.576Z,0.38
2019-03-20T00:45:07.348Z,0.34
2019-03-20T00:47:37.848Z,0.33
2019-03-20T00:50:12.179Z,0.39
2019-03-20T00:52:42.739Z,0.35
2019-03-20T00:55:13.593Z,0.37
2019-03-20T00:57:44.236Z,0.38
2019-03-20T01:00:17.611Z,0.37
2019-03-20T01:02:48.240Z,0.37
2019-03-20T01:05:18.840Z,0.26
2019-03-20T01:07:49.453Z,0.11
2019-03-20T01:10:20.082Z,0.13
2019-03-20T01:12:50.895Z,0.12
2019-03-20T01:15:21.572Z,0.11
2019-03-20T01:17:52.070Z,0.17
2019-03-20T01:20:22.591Z,0.34
2019-03-20T01:22:53.424Z,0.57
2019-03-20T01:25:23.976Z,0.75
2019-03-20T01:27:54.494Z,0.92
2019-03-20T01:30:31.967Z,1.00
2019-03-20T01:33:07.664Z,1.03
2019-03-20T01:35:38.194Z,1.16
2019-03-20T01:38:08.867Z,1.19
2019-03-20T01:40:40.498Z,1.18
2019-03-20T01:43:11.472Z,1.14
2019-03-20T01:45:41.981Z,1.09
2019-03-20T01:48:12.493Z,1.15
2019-03-20T01:50:43.023Z,1.11
2019-03-20T01:53:13.537Z,1.10
2019-03-20T01:55:44.050Z,1.07
2019-03-20T01:58:14.562Z,1.09
2019-03-20T02:00:45.042Z,1.13
2019-03-20T02:03:15.522Z,1.03
2019-03-20T02:05:46.057Z,1.06
2019-03-20T02:08:16.549Z,1.14
2019-03-20T02:10:47.126Z,1.12
2019-03-20T02:13:17.617Z,1.20
2019-03-20T02:15:48.109Z,1.16
2019-03-20T02:18:18.573Z,1.23
2019-03-20T02:20:49.225Z,1.15
2019-03-20T02:23:19.698Z,1.08
2019-03-20T02:25:50.193Z,1.07
2019-03-20T02:28:20.751Z,1.05
2019-03-20T02:30:51.262Z,0.96
2019-03-20T02:33:21.791Z,0.90
2019-03-20T02:35:52.536Z,0.85
2019-03-20T02:38:23.060Z,0.81
2019-03-20T02:40:53.543Z,0.91
2019-03-20T02:43:24.090Z,0.94
2019-03-20T02:45:54.574Z,0.95
2019-03-20T02:48:25.077Z,0.95
2019-03-20T02:50:55.758Z,0.96
2019-03-20T02:53:26.160Z,0.93
2019-03-20T02:55:56.645Z,0.89
2019-03-20T02:58:27.174Z,0.89
2019-03-20T03:00:57.662Z,0.86
2019-03-20T03:03:28.128Z,1.02
2019-03-20T03:06:06.602Z,1.06
2019-03-20T03:08:31.697Z,1.13
2019-03-20T03:11:02.176Z,1.20
2019-03-20T03:13:32.694Z,1.31
2019-03-20T03:16:03.168Z,1.37
2019-03-20T03:18:33.678Z,1.44
2019-03-20T03:21:04.204Z,1.47
2019-03-20T03:23:34.715Z,1.57
2019-03-20T03:26:05.158Z,1.60
2019-03-20T03:28:35.666Z,1.62
2019-03-20T03:31:06.141Z,1.82
2019-03-20T03:33:36.669Z,1.80
2019-03-20T03:36:20.206Z,1.85
2019-03-20T03:38:39.382Z,1.86
2019-03-20T03:41:10.043Z,1.90
2019-03-20T03:43:40.552Z,1.93
2019-03-20T03:46:11.044Z,2.08
2019-03-20T03:48:41.590Z,2.04
2019-03-20T03:51:12.051Z,1.78
2019-03-20T03:53:42.527Z,1.84
2019-03-20T03:56:13.043Z,1.92
2019-03-20T03:58:43.534Z,2.01
2019-03-20T04:01:13.996Z,2.07
2019-03-20T04:03:44.500Z,2.00
2019-03-20T04:06:15.023Z,2.16
2019-03-20T04:08:45.522Z,2.00
2019-03-20T04:11:16.013Z,1.98
2019-03-20T04:13:46.505Z,1.94
2019-03-20T04:16:16.998Z,2.05
2019-03-20T04:18:47.542Z,2.05
2019-03-20T04:21:18.009Z,2.06
2019-03-20T04:23:48.488Z,2.15
2019-03-20T04:26:19.008Z,2.06
2019-03-20T04:28:49.562Z,2.10
2019-03-20T04:31:20.028Z,2.13
2019-03-20T04:33:50.622Z,2.02
2019-03-20T04:36:21.144Z,2.03
2019-03-20T04:38:51.613Z,2.10
2019-03-20T04:41:22.169Z,2.16
2019-03-20T04:43:52.733Z,2.18
2019-03-20T04:46:23.260Z,2.24
2019-03-20T04:48:53.757Z,2.29
2019-03-20T04:51:24.251Z,2.28
2019-03-20T04:53:54.729Z,2.28
2019-03-20T04:56:25.255Z,2.27
2019-03-20T04:58:55.672Z,2.17
2019-03-20T05:01:26.183Z,2.11
2019-03-20T05:03:56.667Z,2.17
2019-03-20T05:06:27.170Z,2.20
2019-03-20T05:08:57.707Z,2.10
2019-03-20T05:11:28.323Z,2.17
2019-03-20T05:13:58.814Z,2.19
2019-03-20T05:16:29.337Z,2.29
2019-03-20T05:18:59.889Z,2.23
2019-03-20T05:21:30.291Z,2.17
2019-03-20T05:24:00.812Z,2.17
2019-03-20T05:26:31.384Z,2.19
2019-03-20T05:29:01.898Z,2.27
2019-03-20T05:31:32.354Z,2.34
2019-03-20T05:34:02.981Z,2.33
2019-03-20T05:36:33.442Z,2.34
2019-03-20T05:39:04.524Z,2.26
2019-03-20T05:41:35.077Z,2.33
2019-03-20T05:44:05.688Z,2.47
2019-03-20T05:46:36.175Z,2.52
2019-03-20T05:49:06.734Z,2.55
2019-03-20T05:51:37.212Z,2.67
2019-03-20T05:54:07.724Z,2.73
2019-03-20T05:56:38.289Z,2.83
2019-03-20T05:59:08.815Z,2.84
2019-03-20T06:01:40.941Z,2.87
2019-03-20T06:04:11.465Z,2.83
2019-03-20T06:06:41.936Z,2.96
2019-03-20T06:09:12.430Z,2.94
2019-03-20T06:11:42.922Z,3.07
2019-03-20T06:14:13.392Z,3.32
2019-03-20T06:16:43.927Z,3.37
2019-03-20T06:19:14.440Z,3.50
2019-03-20T06:21:44.930Z,3.59
2019-03-20T06:24:15.467Z,3.79
2019-03-20T06:26:45.945Z,3.87
2019-03-20T06:29:16.440Z,3.94
2019-03-20T06:31:47.124Z,4.05
2019-03-20T06:34:17.622Z,4.22
2019-03-20T06:36:48.162Z,4.33
2019-03-20T06:39:18.570Z,4.41
2019-03-20T06:41:49.258Z,4.54
2019-03-20T06:44:19.745Z,4.77
2019-03-20T06:46:50.229Z,4.84
2019-03-20T06:49:20.753Z,4.98
2019-03-20T06:51:51.240Z,5.07
2019-03-20T06:54:21.736Z,5.15
2019-03-20T06:56:52.258Z,5.21
2019-03-20T07:00:11.010Z,5.36
2019-03-20T07:02:47.948Z,5.41
2019-03-20T07:06:11.500Z,5.51
2019-03-20T07:08:47.982Z,5.71
2019-03-20T07:11:16.906Z,5.88
2019-03-20T07:13:47.343Z,5.92
2019-03-20T07:16:17.983Z,6.00
2019-03-20T07:18:48.571Z,6.12
2019-03-20T07:21:19.058Z,6.19
2019-03-20T07:23:49.633Z,6.38
2019-03-20T07:26:20.118Z,6.29
2019-03-20T07:28:50.648Z,6.27
2019-03-20T07:31:21.178Z,6.31
2019-03-20T07:33:51.674Z,6.42
2019-03-20T07:36:22.363Z,6.68
2019-03-20T07:38:52.708Z,6.74
2019-03-20T07:41:23.206Z,6.72
2019-03-20T07:43:53.712Z,6.71
2019-03-20T07:46:24.197Z,6.76
2019-03-20T07:48:54.698Z,6.72
2019-03-20T07:51:25.207Z,6.84
2019-03-20T07:53:55.676Z,6.88
2019-03-20T07:56:26.172Z,7.02
2019-03-20T07:58:56.733Z,6.94
2019-03-20T08:01:27.293Z,7.05
2019-03-20T08:03:58.284Z,6.94
2019-03-20T08:06:48.105Z,7.00
2019-03-20T08:09:19.635Z,6.87
2019-03-20T08:11:50.163Z,6.99
2019-03-20T08:14:20.666Z,6.90
2019-03-20T08:16:51.181Z,6.89
2019-03-20T08:19:21.675Z,6.99
2019-03-20T08:21:52.241Z,7.17
2019-03-20T08:24:22.801Z,7.15
2019-03-20T08:26:53.352Z,7.10
2019-03-20T08:29:23.856Z,7.03
2019-03-20T08:31:54.338Z,7.11
2019-03-20T08:34:24.760Z,7.05
2019-03-20T08:36:55.289Z,7.09
2019-03-20T08:39:25.795Z,7.21
2019-03-20T08:41:56.271Z,7.24
2019-03-20T08:44:26.796Z,7.28
2019-03-20T08:46:57.285Z,7.42
2019-03-20T08:49:27.759Z,7.55
2019-03-20T08:51:58.322Z,7.52
2019-03-20T08:54:28.808Z,7.64
2019-03-20T08:56:59.305Z,7.74
2019-03-20T08:59:29.808Z,7.69
2019-03-20T09:02:19.388Z,7.76
2019-03-20T09:04:49.790Z,7.92
2019-03-20T09:07:20.265Z,7.94
2019-03-20T09:09:50.924Z,7.95
2019-03-20T09:12:21.453Z,8.15
2019-03-20T09:14:51.900Z,8.29
2019-03-20T09:17:22.458Z,8.29
2019-03-20T09:19:53.058Z,8.28
2019-03-20T09:22:23.574Z,8.50
2019-03-20T09:24:54.071Z,8.45
2019-03-20T09:27:24.644Z,8.64
2019-03-20T09:29:55.058Z,8.66
2019-03-20T09:32:25.525Z,8.67
2019-03-20T09:34:56.016Z,8.72
2019-03-20T09:37:26.497Z,8.90
2019-03-20T09:39:56.890Z,8.99
2019-03-20T09:42:27.417Z,9.02
2019-03-20T09:44:57.843Z,8.92
2019-03-20T09:47:28.331Z,9.11
2019-03-20T09:49:58.809Z,9.00
2019-03-20T09:52:29.319Z,9.16
2019-03-20T09:54:59.787Z,9.01
2019-03-20T09:57:30.356Z,9.14
2019-03-20T10:00:00.818Z,8.95
2019-03-20T10:02:31.267Z,9.01
2019-03-20T10:05:01.797Z,8.92
2019-03-20T10:07:32.317Z,9.05
2019-03-20T10:10:02.775Z,9.06
2019-03-20T10:12:33.266Z,9.17
2019-03-20T10:15:03.718Z,9.46
2019-03-20T10:17:34.242Z,9.64
2019-03-20T10:20:05.795Z,9.67
2019-03-20T10:22:36.318Z,9.65
2019-03-20T10:25:07.582Z,9.87
2019-03-20T10:27:38.088Z,9.84
2019-03-20T10:30:13.093Z,9.68
2019-03-20T10:32:43.611Z,9.76
2019-03-20T10:35:14.182Z,9.42
2019-03-20T10:37:44.748Z,9.36
2019-03-20T10:40:18.124Z,9.41
2019-03-20T10:42:48.674Z,9.31
2019-03-20T10:45:19.498Z,9.39
2019-03-20T10:47:52.692Z,9.57
2019-03-20T10:50:22.237Z,9.52
2019-03-20T10:52:52.651Z,9.30
2019-03-20T10:55:23.363Z,9.24
2019-03-20T10:57:53.823Z,9.25
2019-03-20T11:00:24.280Z,9.22
2019-03-20T11:02:54.790Z,9.29
2019-03-20T11:05:25.295Z,9.34
2019-03-20T11:07:55.790Z,9.22
2019-03-20T11:10:26.506Z,9.25
2019-03-20T11:12:57.293Z,9.23
2019-03-20T11:15:29.710Z,9.29
2019-03-20T11:18:00.032Z,9.26
2019-03-20T11:20:30.509Z,9.27
2019-03-20T11:23:01.006Z,9.38
2019-03-20T11:25:31.704Z,9.44
2019-03-20T11:28:02.207Z,9.54
2019-03-20T11:30:32.687Z,9.68
2019-03-20T11:33:03.150Z,9.78
2019-03-20T11:35:33.665Z,9.70
2019-03-20T11:38:04.128Z,9.73
2019-03-20T11:40:34.688Z,9.75
2019-03-20T11:43:05.375Z,9.73
2019-03-20T11:45:35.873Z,9.74
2019-03-20T11:48:06.886Z,9.69
2019-03-20T11:50:38.743Z,9.73
2019-03-20T11:53:09.205Z,9.67
2019-03-20T11:55:40.009Z,9.76
2019-03-20T11:58:10.476Z,9.70
2019-03-20T12:00:40.955Z,9.66
2019-03-20T12:03:11.455Z,9.80
2019-03-20T12:05:41.778Z,9.74
2019-03-20T12:08:12.252Z,9.68
2019-03-20T12:10:42.744Z,9.75
2019-03-20T12:13:13.211Z,9.70
2019-03-20T12:15:43.955Z,9.68
2019-03-20T12:18:14.492Z,9.65
2019-03-20T12:20:44.971Z,9.65
2019-03-20T12:23:15.453Z,9.56
2019-03-20T12:25:46.041Z,9.59
2019-03-20T12:28:16.529Z,9.58
2019-03-20T12:30:46.985Z,9.50
2019-03-20T12:33:17.519Z,9.49
2019-03-20T12:35:48.139Z,9.48
2019-03-20T12:38:18.608Z,9.51
2019-03-20T12:40:49.160Z,9.48
2019-03-20T12:43:19.642Z,9.49
2019-03-20T12:45:50.110Z,9.47
2019-03-20T12:48:20.603Z,9.57
2019-03-20T12:50:51.073Z,9.43
2019-03-20T12:53:21.948Z,9.41
2019-03-20T12:55:52.449Z,9.44
2019-03-20T12:58:22.895Z,9.37
2019-03-20T13:00:54.501Z,9.41
2019-03-20T13:03:25.240Z,9.31
2019-03-20T13:05:55.722Z,9.34
2019-03-20T13:08:26.188Z,9.30
2019-03-20T13:10:56.671Z,9.29
2019-03-20T13:13:27.154Z,9.34
2019-03-20T13:15:57.693Z,9.37
2019-03-20T13:18:28.219Z,9.36
2019-03-20T13:20:58.913Z,9.38
2019-03-20T13:23:32.174Z,9.46
2019-03-20T13:26:02.692Z,9.52
2019-03-20T13:28:33.207Z,9.51
2019-03-20T13:31:09.779Z,9.51
2019-03-20T13:33:40.229Z,9.51
2019-03-20T13:36:10.824Z,9.59
2019-03-20T13:38:41.374Z,9.66
2019-03-20T13:41:11.872Z,9.61
2019-03-20T13:43:42.339Z,9.64
2019-03-20T13:46:12.934Z,9.62
2019-03-20T13:48:43.426Z,9.71
2019-03-20T13:51:13.893Z,9.69
2019-03-20T13:53:44.415Z,9.70
2019-03-20T13:56:14.872Z,9.55
2019-03-20T13:58:45.340Z,9.59
2019-03-20T14:01:15.776Z,9.63
2019-03-20T14:03:46.231Z,9.66
2019-03-20T14:06:16.708Z,9.71
2019-03-20T14:08:47.181Z,9.62
2019-03-20T14:11:17.663Z,9.57
2019-03-20T14:13:48.172Z,9.59
2019-03-20T14:16:19.605Z,9.57
2019-03-20T14:18:50.076Z,9.65
2019-03-20T14:21:20.574Z,9.61
2019-03-20T14:23:51.151Z,9.65
2019-03-20T14:26:21.634Z,9.62
2019-03-20T14:28:52.049Z,9.57
2019-03-20T14:31:22.659Z,9.58
2019-03-20T14:33:53.120Z,9.57
2019-03-20T14:36:23.574Z,9.57
2019-03-20T14:38:54.069Z,9.57
2019-03-20T14:41:24.492Z,9.54
2019-03-20T14:43:54.878Z,9.56
2019-03-20T14:46:25.410Z,9.61
2019-03-20T14:48:55.860Z,9.67
2019-03-20T14:51:26.323Z,9.68
2019-03-20T14:53:56.868Z,9.61
2019-03-20T14:56:27.368Z,9.57
2019-03-20T14:58:57.769Z,9.59
2019-03-20T15:01:28.273Z,9.59
2019-03-20T15:03:58.769Z,9.64
2019-03-20T15:06:29.332Z,9.63
2019-03-20T15:08:59.863Z,9.72
2019-03-20T15:11:30.399Z,9.70
2019-03-20T15:14:00.900Z,9.68
2019-03-20T15:16:31.436Z,9.73
2019-03-20T15:19:01.924Z,9.76
2019-03-20T15:21:32.426Z,9.70
2019-03-20T15:24:02.979Z,9.68
2019-03-20T15:26:33.457Z,9.75
2019-03-20T15:29:04.123Z,9.66
2019-03-20T15:31:34.659Z,9.61
2019-03-20T15:34:05.168Z,9.61
2019-03-20T15:36:35.668Z,9.66
2019-03-20T15:39:08.345Z,9.66
2019-03-20T15:41:38.776Z,9.65
2019-03-20T15:44:09.301Z,9.64
2019-03-20T15:46:39.787Z,9.64
2019-03-20T15:49:10.255Z,9.60
2019-03-20T15:51:40.749Z,9.59
2019-03-20T15:54:11.270Z,9.56
2019-03-20T15:56:41.759Z,9.50
2019-03-20T15:59:12.245Z,9.53
2019-03-20T16:01:42.781Z,9.53
2019-03-20T16:04:13.307Z,9.47
2019-03-20T16:06:43.806Z,9.49
2019-03-20T16:09:14.338Z,9.56
2019-03-20T16:11:44.865Z,9.50
2019-03-20T16:14:15.331Z,9.53
2019-03-20T16:16:45.854Z,9.50
2019-03-20T16:19:16.369Z,9.47
2019-03-20T16:21:46.866Z,9.46
2019-03-20T16:24:17.409Z,9.43
2019-03-20T16:26:47.900Z,9.41
2019-03-20T16:29:19.080Z,9.36
2019-03-20T16:31:49.609Z,9.34
2019-03-20T16:34:20.099Z,9.35
2019-03-20T16:36:50.606Z,9.39
2019-03-20T16:39:21.193Z,9.33
2019-03-20T16:41:51.788Z,9.29
2019-03-20T16:44:22.358Z,9.23
2019-03-20T16:46:52.905Z,9.27
2019-03-20T16:49:23.334Z,9.22
2019-03-20T16:51:53.829Z,9.20
2019-03-20T16:54:24.354Z,9.22
2019-03-20T16:56:54.904Z,9.21
2019-03-20T16:59:25.476Z,9.17
2019-03-20T17:01:56.035Z,9.17
2019-03-20T17:04:26.585Z,9.17
2019-03-20T17:06:57.023Z,9.07
2019-03-20T17:09:27.542Z,9.10
2019-03-20T17:11:58.078Z,9.17
2019-03-20T17:14:28.599Z,9.20
2019-03-20T17:16:59.119Z,9.10
2019-03-20T17:19:29.670Z,9.12
2019-03-20T17:22:00.187Z,9.14
2019-03-20T17:24:30.728Z,9.15
2019-03-20T17:27:01.327Z,9.12
2019-03-20T17:29:31.834Z,9.18
2019-03-20T17:32:02.410Z,9.11
2019-03-20T17:34:32.911Z,9.15
2019-03-20T17:37:03.413Z,9.12
2019-03-20T17:39:34.027Z,9.07
2019-03-20T17:42:04.514Z,9.04
2019-03-20T17:44:35.030Z,9.14
2019-03-20T17:47:05.640Z,9.14
2019-03-20T17:49:36.155Z,9.10
2019-03-20T17:52:06.766Z,9.13
2019-03-20T17:54:37.307Z,9.14
2019-03-20T17:57:07.791Z,9.13
2019-03-20T17:59:38.316Z,9.13
2019-03-20T18:02:08.867Z,9.09
2019-03-20T18:04:39.347Z,9.13
2019-03-20T18:07:09.910Z,9.23
2019-03-20T18:09:40.474Z,9.22
2019-03-20T18:12:10.969Z,9.17
2019-03-20T18:14:41.458Z,9.21
2019-03-20T18:17:11.987Z,9.19
2019-03-20T18:19:42.511Z,9.23
2019-03-20T18:22:12.989Z,9.17
2019-03-20T18:24:43.541Z,9.20
2019-03-20T18:27:14.061Z,9.18
2019-03-20T18:29:44.608Z,9.21
2019-03-20T18:32:15.146Z,9.24
2019-03-20T18:34:45.617Z,9.22
2019-03-20T18:37:16.146Z,9.23
2019-03-20T18:39:46.703Z,9.28
2019-03-20T18:42:17.266Z,9.26
2019-03-20T18:44:47.795Z,9.28
2019-03-20T18:47:18.348Z,9.29
2019-03-20T18:49:48.960Z,9.26
2019-03-20T18:52:19.522Z,9.24
2019-03-20T18:54:50.182Z,9.33
2019-03-20T18:57:20.702Z,9.28
2019-03-20T18:59:51.221Z,9.26
2019-03-20T19:02:21.742Z,9.24
2019-03-20T19:04:52.239Z,9.26
2019-03-20T19:07:22.788Z,9.29
2019-03-20T19:09:53.377Z,9.31
2019-03-20T19:12:23.883Z,9.29
2019-03-20T19:14:54.382Z,9.30
2019-03-20T19:17:24.908Z,9.30
2019-03-20T19:19:55.487Z,9.24
2019-03-20T19:22:26.071Z,9.31
2019-03-20T19:24:56.591Z,9.37
2019-03-20T19:27:27.128Z,9.47
2019-03-20T19:29:57.647Z,9.45
2019-03-20T19:32:28.227Z,9.35
2019-03-20T19:34:58.834Z,9.37
2019-03-20T19:37:29.336Z,9.38
2019-03-20T19:39:59.889Z,9.40
2019-03-20T19:42:30.455Z,9.39
2019-03-20T19:45:00.996Z,9.46
2019-03-20T19:47:31.517Z,9.45
2019-03-20T19:50:02.113Z,9.38
2019-03-20T19:52:32.638Z,9.37
2019-03-20T19:55:03.209Z,9.37
2019-03-20T19:57:33.754Z,9.35
2019-03-20T20:00:04.868Z,9.34
2019-03-20T20:02:35.397Z,9.37
2019-03-20T20:05:15.356Z,9.36
2019-03-20T20:07:39.057Z,9.40
2019-03-20T20:10:10.717Z,9.41
2019-03-20T20:12:41.256Z,9.38
2019-03-20T20:15:18.104Z,9.36
2019-03-20T20:17:48.733Z,9.42
2019-03-20T20:20:20.795Z,9.37
2019-03-20T20:22:51.327Z,9.38
2019-03-20T20:25:21.859Z,9.36
2019-03-20T20:27:52.346Z,9.33
2019-03-20T20:30:22.961Z,9.38
2019-03-20T20:32:53.511Z,9.35
2019-03-20T20:35:24.019Z,9.36
2019-03-20T20:37:54.568Z,9.39
2019-03-20T20:40:25.194Z,9.41
2019-03-20T20:42:55.744Z,9.42
2019-03-20T20:45:26.259Z,9.36
2019-03-20T20:47:56.760Z,9.39
2019-03-20T20:50:27.286Z,9.38
2019-03-20T20:52:57.852Z,9.39
2019-03-20T20:55:28.440Z,9.39
2019-03-20T20:57:59.126Z,9.36
2019-03-20T21:00:29.720Z,9.36
2019-03-20T21:03:00.256Z,9.33
2019-03-20T21:05:30.884Z,9.33
2019-03-20T21:08:01.423Z,9.34
2019-03-20T21:10:31.941Z,9.32
2019-03-20T21:13:02.411Z,9.37
2019-03-20T21:15:48.610Z,9.39
2019-03-20T21:19:15.350Z,9.41
2019-03-20T21:23:04.127Z,9.35
2019-03-20T21:25:35.603Z,9.33
2019-03-20T21:29:19.957Z,9.32
2019-03-20T21:32:06.025Z,9.32
2019-03-20T21:35:35.686Z,9.40
2019-03-20T21:38:11.292Z,9.40
2019-03-20T21:41:35.498Z,9.47
2019-03-20T21:45:16.555Z,9.48
2019-03-20T21:47:47.904Z,9.39
2019-03-20T21:51:10.457Z,9.34
2019-03-20T21:54:40.664Z,9.35
2019-03-20T21:58:17.463Z,9.24
2019-03-20T22:01:45.188Z,9.34
2019-03-20T22:04:16.574Z,9.37
2019-03-20T22:07:09.670Z,9.26
2019-03-20T22:10:54.150Z,9.27
2019-03-20T22:13:46.849Z,9.35
2019-03-20T22:17:18.670Z,9.37
2019-03-20T22:20:24.536Z,9.29
2019-03-20T22:24:07.598Z,9.23
2019-03-20T22:28:02.589Z,9.19
2019-03-20T22:30:34.136Z,9.11
2019-03-20T22:33:59.631Z,9.05
2019-03-20T22:36:37.759Z,9.02
2019-03-20T22:40:07.639Z,9.10
2019-03-20T22:43:30.093Z,9.06
2019-03-20T22:47:10.413Z,9.11
2019-03-20T22:50:10.918Z,9.24
2019-03-20T22:53:35.473Z,9.18
2019-03-20T22:56:49.886Z,9.19
2019-03-20T22:59:21.479Z,9.21
2019-03-20T23:02:37.536Z,9.21
2019-03-20T23:05:10.117Z,9.21
2019-03-20T23:07:41.590Z,9.23
2019-03-20T23:10:15.004Z,9.29
2019-03-20T23:12:46.567Z,9.24
2019-03-20T23:15:19.035Z,9.38
2019-03-20T23:17:50.573Z,9.34
2019-03-20T23:20:24.860Z,9.32
2019-03-20T23:22:56.503Z,9.32
2019-03-20T23:25:28.037Z,9.30
2019-03-20T23:27:59.620Z,9.31
2019-03-20T23:30:31.200Z,9.31
2019-03-20T23:33:02.695Z,9.27
2019-03-20T23:35:34.216Z,9.28
2019-03-20T23:38:05.806Z,9.31
2019-03-20T23:40:37.766Z,9.29
2019-03-20T23:43:09.860Z,9.28
2019-03-20T23:45:41.464Z,9.35
2019-03-20T23:48:36.250Z,9.34
2019-03-20T23:51:15.011Z,9.35
2019-03-20T23:53:50.891Z,9.33
2019-03-20T23:56:22.429Z,9.40
2019-03-20T23:58:53.914Z,9.32
